sensor_id;sensor_type;location;lat;lon;timestamp;P1;durP1;ratioP1;P2;durP2;ratioP2
55037;SDS011;40937;53.594;10.034;2023-04-03T00:00:55;7.45;;;3.28;;
55037;SDS011;40937;53.594;10.034;2023-04-03T00:03:23;9.10;;;2.78;;
55037;SDS011;40937;53.594;10.034;2023-04-03T00:05:52;8.93;;;3.42;;
55037;SDS011;40937;53.594;10.034;2023-04-03T00:08:20;6.43;;;2.83;;
55037;SDS011;40937;53.594;10.034;2023-04-03T00:10:48;5.13;;;2.55;;
55037;SDS011;40937;53.594;10.034;2023-04-03T00:13:16;7.03;;;2.88;;
55037;SDS011;40937;53.594;10.034;2023-04-03T00:15:43;6.18;;;3.10;;
55037;SDS011;40937;53.594;10.034;2023-04-03T00:18:11;7.90;;;3.88;;
55037;SDS011;40937;53.594;10.034;2023-04-03T00:20:38;9.05;;;3.40;;
55037;SDS011;40937;53.594;10.034;2023-04-03T00:23:07;6.18;;;2.70;;
55037;SDS011;40937;53.594;10.034;2023-04-03T00:25:34;7.35;;;3.45;;
55037;SDS011;40937;53.594;10.034;2023-04-03T00:28:02;6.70;;;2.95;;
55037;SDS011;40937;53.594;10.034;2023-04-03T00:30:31;9.48;;;3.13;;
55037;SDS011;40937;53.594;10.034;2023-04-03T00:32:59;6.88;;;3.05;;
55037;SDS011;40937;53.594;10.034;2023-04-03T00:35:26;7.72;;;3.35;;
55037;SDS011;40937;53.594;10.034;2023-04-03T00:37:54;10.52;;;3.45;;
55037;SDS011;40937;53.594;10.034;2023-04-03T00:40:25;9.27;;;3.63;;
55037;SDS011;40937;53.594;10.034;2023-04-03T00:42:55;7.57;;;3.47;;
55037;SDS011;40937;53.594;10.034;2023-04-03T00:45:31;7.50;;;3.40;;
55037;SDS011;40937;53.594;10.034;2023-04-03T00:48:02;8.70;;;3.35;;
55037;SDS011;40937;53.594;10.034;2023-04-03T00:50:32;8.23;;;3.45;;
55037;SDS011;40937;53.594;10.034;2023-04-03T00:53:02;12.57;;;3.83;;
55037;SDS011;40937;53.594;10.034;2023-04-03T00:55:33;5.43;;;3.08;;
55037;SDS011;40937;53.594;10.034;2023-04-03T00:58:02;9.15;;;3.25;;
55037;SDS011;40937;53.594;10.034;2023-04-03T01:00:30;6.05;;;3.30;;
55037;SDS011;40937;53.594;10.034;2023-04-03T01:02:57;7.05;;;3.13;;
55037;SDS011;40937;53.594;10.034;2023-04-03T01:05:26;8.52;;;3.30;;
55037;SDS011;40937;53.594;10.034;2023-04-03T01:07:54;5.30;;;2.58;;
55037;SDS011;40937;53.594;10.034;2023-04-03T01:10:23;6.38;;;3.13;;
55037;SDS011;40937;53.594;10.034;2023-04-03T01:12:53;6.57;;;3.67;;
55037;SDS011;40937;53.594;10.034;2023-04-03T01:15:21;6.75;;;3.05;;
55037;SDS011;40937;53.594;10.034;2023-04-03T01:17:50;11.30;;;3.17;;
55037;SDS011;40937;53.594;10.034;2023-04-03T01:23:23;10.30;;;3.45;;
55037;SDS011;40937;53.594;10.034;2023-04-03T01:25:57;7.70;;;4.13;;
55037;SDS011;40937;53.594;10.034;2023-04-03T01:28:27;9.75;;;3.85;;
55037;SDS011;40937;53.594;10.034;2023-04-03T01:30:59;7.45;;;3.42;;
55037;SDS011;40937;53.594;10.034;2023-04-03T01:33:34;8.13;;;2.88;;
55037;SDS011;40937;53.594;10.034;2023-04-03T01:36:02;7.07;;;3.17;;
55037;SDS011;40937;53.594;10.034;2023-04-03T01:38:31;6.60;;;3.40;;
55037;SDS011;40937;53.594;10.034;2023-04-03T01:40:58;7.15;;;3.50;;
55037;SDS011;40937;53.594;10.034;2023-04-03T01:43:26;8.93;;;3.60;;
55037;SDS011;40937;53.594;10.034;2023-04-03T01:45:53;6.47;;;3.55;;
55037;SDS011;40937;53.594;10.034;2023-04-03T01:48:21;9.05;;;3.47;;
55037;SDS011;40937;53.594;10.034;2023-04-03T01:50:50;7.45;;;3.28;;
55037;SDS011;40937;53.594;10.034;2023-04-03T01:53:19;11.40;;;3.22;;
55037;SDS011;40937;53.594;10.034;2023-04-03T01:55:46;8.55;;;3.33;;
55037;SDS011;40937;53.594;10.034;2023-04-03T01:58:15;4.85;;;2.95;;
55037;SDS011;40937;53.594;10.034;2023-04-03T02:00:42;6.10;;;3.20;;
55037;SDS011;40937;53.594;10.034;2023-04-03T02:03:10;7.82;;;3.65;;
55037;SDS011;40937;53.594;10.034;2023-04-03T02:05:37;5.63;;;3.67;;
55037;SDS011;40937;53.594;10.034;2023-04-03T02:08:06;15.23;;;3.70;;
55037;SDS011;40937;53.594;10.034;2023-04-03T02:10:34;7.50;;;2.95;;
55037;SDS011;40937;53.594;10.034;2023-04-03T02:13:01;7.60;;;3.35;;
55037;SDS011;40937;53.594;10.034;2023-04-03T02:15:29;11.18;;;3.25;;
55037;SDS011;40937;53.594;10.034;2023-04-03T02:17:56;7.72;;;3.45;;
55037;SDS011;40937;53.594;10.034;2023-04-03T02:20:24;7.47;;;3.13;;
55037;SDS011;40937;53.594;10.034;2023-04-03T02:22:51;6.50;;;2.85;;
55037;SDS011;40937;53.594;10.034;2023-04-03T02:25:19;7.13;;;3.15;;
55037;SDS011;40937;53.594;10.034;2023-04-03T02:27:47;5.65;;;3.08;;
55037;SDS011;40937;53.594;10.034;2023-04-03T02:30:14;8.57;;;2.92;;
55037;SDS011;40937;53.594;10.034;2023-04-03T02:32:42;6.25;;;2.85;;
55037;SDS011;40937;53.594;10.034;2023-04-03T02:35:10;6.88;;;3.20;;
55037;SDS011;40937;53.594;10.034;2023-04-03T02:37:40;8.20;;;3.67;;
55037;SDS011;40937;53.594;10.034;2023-04-03T02:40:08;7.97;;;3.53;;
55037;SDS011;40937;53.594;10.034;2023-04-03T02:42:38;5.13;;;3.70;;
55037;SDS011;40937;53.594;10.034;2023-04-03T02:45:07;6.38;;;2.63;;
55037;SDS011;40937;53.594;10.034;2023-04-03T02:47:34;9.60;;;3.50;;
55037;SDS011;40937;53.594;10.034;2023-04-03T02:50:03;8.17;;;3.07;;
55037;SDS011;40937;53.594;10.034;2023-04-03T02:52:32;6.18;;;3.35;;
55037;SDS011;40937;53.594;10.034;2023-04-03T02:54:59;13.40;;;5.72;;
55037;SDS011;40937;53.594;10.034;2023-04-03T02:57:26;7.75;;;3.35;;
55037;SDS011;40937;53.594;10.034;2023-04-03T02:59:55;6.45;;;3.33;;
55037;SDS011;40937;53.594;10.034;2023-04-03T03:02:22;9.43;;;3.38;;
55037;SDS011;40937;53.594;10.034;2023-04-03T03:04:50;5.75;;;3.00;;
55037;SDS011;40937;53.594;10.034;2023-04-03T03:07:17;9.65;;;3.75;;
55037;SDS011;40937;53.594;10.034;2023-04-03T03:09:44;9.32;;;3.33;;
55037;SDS011;40937;53.594;10.034;2023-04-03T03:12:11;7.68;;;3.05;;
55037;SDS011;40937;53.594;10.034;2023-04-03T03:14:39;6.85;;;2.70;;
55037;SDS011;40937;53.594;10.034;2023-04-03T03:17:07;5.57;;;2.70;;
55037;SDS011;40937;53.594;10.034;2023-04-03T03:19:34;5.93;;;3.15;;
55037;SDS011;40937;53.594;10.034;2023-04-03T03:22:02;7.10;;;3.17;;
55037;SDS011;40937;53.594;10.034;2023-04-03T03:24:29;8.40;;;3.20;;
55037;SDS011;40937;53.594;10.034;2023-04-03T03:26:56;8.02;;;3.42;;
55037;SDS011;40937;53.594;10.034;2023-04-03T03:29:24;5.22;;;3.10;;
55037;SDS011;40937;53.594;10.034;2023-04-03T03:31:51;8.15;;;3.40;;
55037;SDS011;40937;53.594;10.034;2023-04-03T03:34:20;5.53;;;3.05;;
55037;SDS011;40937;53.594;10.034;2023-04-03T03:36:47;9.20;;;3.40;;
55037;SDS011;40937;53.594;10.034;2023-04-03T03:39:14;8.90;;;3.35;;
55037;SDS011;40937;53.594;10.034;2023-04-03T03:41:42;10.07;;;3.95;;
55037;SDS011;40937;53.594;10.034;2023-04-03T03:44:09;14.45;;;3.53;;
55037;SDS011;40937;53.594;10.034;2023-04-03T03:46:37;5.38;;;2.50;;
55037;SDS011;40937;53.594;10.034;2023-04-03T03:49:04;7.28;;;3.17;;
55037;SDS011;40937;53.594;10.034;2023-04-03T03:51:33;10.27;;;2.70;;
55037;SDS011;40937;53.594;10.034;2023-04-03T03:54:03;7.50;;;3.38;;
55037;SDS011;40937;53.594;10.034;2023-04-03T03:56:30;9.93;;;3.53;;
55037;SDS011;40937;53.594;10.034;2023-04-03T03:58:58;7.72;;;3.28;;
55037;SDS011;40937;53.594;10.034;2023-04-03T04:01:25;6.47;;;2.63;;
55037;SDS011;40937;53.594;10.034;2023-04-03T04:03:52;6.38;;;2.80;;
55037;SDS011;40937;53.594;10.034;2023-04-03T04:06:26;8.02;;;3.97;;
55037;SDS011;40937;53.594;10.034;2023-04-03T04:08:58;6.47;;;3.63;;
55037;SDS011;40937;53.594;10.034;2023-04-03T04:11:26;6.15;;;3.20;;
55037;SDS011;40937;53.594;10.034;2023-04-03T04:13:54;7.68;;;3.08;;
55037;SDS011;40937;53.594;10.034;2023-04-03T04:16:24;9.45;;;4.05;;
55037;SDS011;40937;53.594;10.034;2023-04-03T04:18:53;6.05;;;3.22;;
55037;SDS011;40937;53.594;10.034;2023-04-03T04:21:21;7.03;;;3.45;;
55037;SDS011;40937;53.594;10.034;2023-04-03T04:23:51;8.00;;;2.90;;
55037;SDS011;40937;53.594;10.034;2023-04-03T04:26:20;8.48;;;3.42;;
55037;SDS011;40937;53.594;10.034;2023-04-03T04:28:48;3.92;;;3.30;;
55037;SDS011;40937;53.594;10.034;2023-04-03T04:31:17;8.15;;;3.33;;
55037;SDS011;40937;53.594;10.034;2023-04-03T04:33:45;5.13;;;2.85;;
55037;SDS011;40937;53.594;10.034;2023-04-03T04:36:14;7.57;;;3.60;;
55037;SDS011;40937;53.594;10.034;2023-04-03T04:38:43;6.95;;;3.15;;
55037;SDS011;40937;53.594;10.034;2023-04-03T04:41:11;6.18;;;2.97;;
55037;SDS011;40937;53.594;10.034;2023-04-03T04:43:40;9.23;;;3.08;;
55037;SDS011;40937;53.594;10.034;2023-04-03T04:46:09;8.18;;;3.63;;
55037;SDS011;40937;53.594;10.034;2023-04-03T04:48:43;5.57;;;3.55;;
55037;SDS011;40937;53.594;10.034;2023-04-03T04:51:11;7.05;;;3.35;;
55037;SDS011;40937;53.594;10.034;2023-04-03T04:53:39;6.43;;;3.17;;
55037;SDS011;40937;53.594;10.034;2023-04-03T04:56:08;8.65;;;3.85;;
55037;SDS011;40937;53.594;10.034;2023-04-03T04:58:37;10.88;;;3.70;;
55037;SDS011;40937;53.594;10.034;2023-04-03T05:01:09;12.82;;;4.10;;
55037;SDS011;40937;53.594;10.034;2023-04-03T05:03:51;4.82;;;3.28;;
55037;SDS011;40937;53.594;10.034;2023-04-03T05:06:20;7.93;;;3.65;;
55037;SDS011;40937;53.594;10.034;2023-04-03T05:08:49;11.65;;;3.38;;
55037;SDS011;40937;53.594;10.034;2023-04-03T05:11:19;7.10;;;3.13;;
55037;SDS011;40937;53.594;10.034;2023-04-03T05:13:52;10.75;;;3.47;;
55037;SDS011;40937;53.594;10.034;2023-04-03T05:16:25;8.60;;;3.33;;
55037;SDS011;40937;53.594;10.034;2023-04-03T05:18:59;10.70;;;3.72;;
55037;SDS011;40937;53.594;10.034;2023-04-03T05:21:29;10.63;;;3.60;;
55037;SDS011;40937;53.594;10.034;2023-04-03T05:24:03;10.77;;;3.78;;
55037;SDS011;40937;53.594;10.034;2023-04-03T05:26:38;7.13;;;3.38;;
55037;SDS011;40937;53.594;10.034;2023-04-03T05:29:08;10.32;;;3.45;;
55037;SDS011;40937;53.594;10.034;2023-04-03T05:31:43;13.57;;;3.45;;
55037;SDS011;40937;53.594;10.034;2023-04-03T05:34:15;10.65;;;3.45;;
55037;SDS011;40937;53.594;10.034;2023-04-03T05:36:48;7.65;;;3.83;;
55037;SDS011;40937;53.594;10.034;2023-04-03T05:39:19;8.35;;;3.78;;
55037;SDS011;40937;53.594;10.034;2023-04-03T05:41:48;7.40;;;3.70;;
55037;SDS011;40937;53.594;10.034;2023-04-03T05:44:17;6.30;;;3.55;;
55037;SDS011;40937;53.594;10.034;2023-04-03T05:46:52;6.57;;;3.42;;
55037;SDS011;40937;53.594;10.034;2023-04-03T05:49:20;7.15;;;3.58;;
55037;SDS011;40937;53.594;10.034;2023-04-03T05:52:02;3.92;;;3.35;;
55037;SDS011;40937;53.594;10.034;2023-04-03T05:54:31;7.80;;;3.50;;
55037;SDS011;40937;53.594;10.034;2023-04-03T05:57:05;6.00;;;3.83;;
55037;SDS011;40937;53.594;10.034;2023-04-03T05:59:33;9.45;;;3.60;;
55037;SDS011;40937;53.594;10.034;2023-04-03T06:02:02;8.50;;;3.30;;
55037;SDS011;40937;53.594;10.034;2023-04-03T06:04:29;4.82;;;2.58;;
55037;SDS011;40937;53.594;10.034;2023-04-03T06:06:58;8.98;;;3.10;;
55037;SDS011;40937;53.594;10.034;2023-04-03T06:09:26;5.90;;;3.45;;
55037;SDS011;40937;53.594;10.034;2023-04-03T06:11:55;23.58;;;4.00;;
55037;SDS011;40937;53.594;10.034;2023-04-03T06:14:25;8.50;;;3.15;;
55037;SDS011;40937;53.594;10.034;2023-04-03T06:16:53;12.00;;;3.08;;
55037;SDS011;40937;53.594;10.034;2023-04-03T06:19:22;8.57;;;3.22;;
55037;SDS011;40937;53.594;10.034;2023-04-03T06:21:53;5.32;;;2.90;;
55037;SDS011;40937;53.594;10.034;2023-04-03T06:24:21;7.55;;;4.35;;
55037;SDS011;40937;53.594;10.034;2023-04-03T06:26:49;8.50;;;3.13;;
55037;SDS011;40937;53.594;10.034;2023-04-03T06:29:18;7.00;;;3.22;;
55037;SDS011;40937;53.594;10.034;2023-04-03T06:31:46;10.23;;;3.08;;
55037;SDS011;40937;53.594;10.034;2023-04-03T06:34:13;11.73;;;3.13;;
55037;SDS011;40937;53.594;10.034;2023-04-03T06:36:42;6.38;;;3.17;;
55037;SDS011;40937;53.594;10.034;2023-04-03T06:39:11;7.88;;;2.83;;
55037;SDS011;40937;53.594;10.034;2023-04-03T06:41:41;8.35;;;3.05;;
55037;SDS011;40937;53.594;10.034;2023-04-03T06:44:08;7.15;;;3.08;;
55037;SDS011;40937;53.594;10.034;2023-04-03T06:46:37;15.27;;;3.28;;
55037;SDS011;40937;53.594;10.034;2023-04-03T06:49:05;8.57;;;3.45;;
55037;SDS011;40937;53.594;10.034;2023-04-03T06:51:33;9.05;;;3.33;;
55037;SDS011;40937;53.594;10.034;2023-04-03T06:54:02;8.60;;;2.80;;
55037;SDS011;40937;53.594;10.034;2023-04-03T06:56:31;2.72;;;2.10;;
55037;SDS011;40937;53.594;10.034;2023-04-03T06:58:59;8.77;;;3.20;;
55037;SDS011;40937;53.594;10.034;2023-04-03T07:01:27;4.70;;;2.72;;
55037;SDS011;40937;53.594;10.034;2023-04-03T07:03:56;3.85;;;2.63;;
55037;SDS011;40937;53.594;10.034;2023-04-03T07:06:24;8.02;;;2.90;;
55037;SDS011;40937;53.594;10.034;2023-04-03T07:08:52;5.80;;;2.92;;
55037;SDS011;40937;53.594;10.034;2023-04-03T07:11:23;5.38;;;2.78;;
55037;SDS011;40937;53.594;10.034;2023-04-03T07:13:52;5.95;;;1.92;;
55037;SDS011;40937;53.594;10.034;2023-04-03T07:16:20;3.95;;;2.40;;
55037;SDS011;40937;53.594;10.034;2023-04-03T07:18:50;7.60;;;2.15;;
55037;SDS011;40937;53.594;10.034;2023-04-03T07:21:21;4.40;;;2.08;;
55037;SDS011;40937;53.594;10.034;2023-04-03T07:23:49;4.55;;;2.00;;
55037;SDS011;40937;53.594;10.034;2023-04-03T07:26:22;11.88;;;2.35;;
55037;SDS011;40937;53.594;10.034;2023-04-03T07:28:51;4.30;;;2.05;;
55037;SDS011;40937;53.594;10.034;2023-04-03T07:31:19;6.43;;;2.03;;
55037;SDS011;40937;53.594;10.034;2023-04-03T07:33:46;4.30;;;2.03;;
55037;SDS011;40937;53.594;10.034;2023-04-03T07:36:16;7.88;;;1.80;;
55037;SDS011;40937;53.594;10.034;2023-04-03T07:38:45;3.95;;;1.75;;
55037;SDS011;40937;53.594;10.034;2023-04-03T07:41:13;6.00;;;2.15;;
55037;SDS011;40937;53.594;10.034;2023-04-03T07:43:44;5.60;;;2.40;;
55037;SDS011;40937;53.594;10.034;2023-04-03T07:46:12;4.82;;;2.08;;
55037;SDS011;40937;53.594;10.034;2023-04-03T07:48:39;6.40;;;2.05;;
55037;SDS011;40937;53.594;10.034;2023-04-03T07:51:07;4.68;;;2.08;;
55037;SDS011;40937;53.594;10.034;2023-04-03T07:53:34;4.72;;;1.80;;
55037;SDS011;40937;53.594;10.034;2023-04-03T07:56:01;7.10;;;2.35;;
55037;SDS011;40937;53.594;10.034;2023-04-03T07:58:29;5.43;;;2.00;;
55037;SDS011;40937;53.594;10.034;2023-04-03T08:00:58;5.65;;;1.90;;
55037;SDS011;40937;53.594;10.034;2023-04-03T08:03:25;3.53;;;1.73;;
55037;SDS011;40937;53.594;10.034;2023-04-03T08:05:53;7.53;;;1.52;;
55037;SDS011;40937;53.594;10.034;2023-04-03T08:08:23;4.03;;;1.80;;
55037;SDS011;40937;53.594;10.034;2023-04-03T08:10:50;3.88;;;1.83;;
55037;SDS011;40937;53.594;10.034;2023-04-03T08:13:18;4.35;;;1.73;;
55037;SDS011;40937;53.594;10.034;2023-04-03T08:15:50;3.53;;;1.50;;
55037;SDS011;40937;53.594;10.034;2023-04-03T08:18:27;2.92;;;1.88;;
55037;SDS011;40937;53.594;10.034;2023-04-03T08:32:38;4.68;;;1.48;;
55037;SDS011;40937;53.594;10.034;2023-04-03T08:35:37;12.50;;;2.25;;
55037;SDS011;40937;53.594;10.034;2023-04-03T08:38:07;7.53;;;1.70;;
55037;SDS011;40937;53.594;10.034;2023-04-03T08:40:35;2.97;;;1.65;;
55037;SDS011;40937;53.594;10.034;2023-04-03T08:43:05;7.97;;;2.35;;
55037;SDS011;40937;53.594;10.034;2023-04-03T08:45:48;5.03;;;1.77;;
55037;SDS011;40937;53.594;10.034;2023-04-03T08:48:19;5.25;;;1.85;;
55037;SDS011;40937;53.594;10.034;2023-04-03T08:50:51;2.53;;;1.45;;
55037;SDS011;40937;53.594;10.034;2023-04-03T08:53:22;5.15;;;1.70;;
55037;SDS011;40937;53.594;10.034;2023-04-03T08:55:54;5.35;;;1.83;;
55037;SDS011;40937;53.594;10.034;2023-04-03T08:58:23;3.60;;;1.75;;
55037;SDS011;40937;53.594;10.034;2023-04-03T09:00:53;2.97;;;1.77;;
55037;SDS011;40937;53.594;10.034;2023-04-03T09:03:23;8.48;;;1.77;;
55037;SDS011;40937;53.594;10.034;2023-04-03T09:05:53;2.65;;;1.83;;
55037;SDS011;40937;53.594;10.034;2023-04-03T09:08:24;2.13;;;1.65;;
55037;SDS011;40937;53.594;10.034;2023-04-03T09:10:58;2.63;;;1.20;;
55037;SDS011;40937;53.594;10.034;2023-04-03T09:13:34;5.47;;;2.00;;
55037;SDS011;40937;53.594;10.034;2023-04-03T09:16:14;4.25;;;1.80;;
55037;SDS011;40937;53.594;10.034;2023-04-03T09:18:48;6.40;;;2.08;;
55037;SDS011;40937;53.594;10.034;2023-04-03T09:21:26;2.08;;;1.45;;
55037;SDS011;40937;53.594;10.034;2023-04-03T09:24:01;4.93;;;1.40;;
55037;SDS011;40937;53.594;10.034;2023-04-03T09:26:33;3.35;;;1.45;;
55037;SDS011;40937;53.594;10.034;2023-04-03T09:29:06;8.95;;;1.52;;
55037;SDS011;40937;53.594;10.034;2023-04-03T09:31:36;2.95;;;1.67;;
55037;SDS011;40937;53.594;10.034;2023-04-03T09:34:06;3.63;;;1.50;;
55037;SDS011;40937;53.594;10.034;2023-04-03T09:36:40;3.15;;;1.48;;
55037;SDS011;40937;53.594;10.034;2023-04-03T09:39:10;2.85;;;1.60;;
55037;SDS011;40937;53.594;10.034;2023-04-03T09:41:40;2.30;;;1.30;;
55037;SDS011;40937;53.594;10.034;2023-04-03T09:44:23;2.92;;;1.10;;
55037;SDS011;40937;53.594;10.034;2023-04-03T09:46:52;6.13;;;1.52;;
55037;SDS011;40937;53.594;10.034;2023-04-03T09:49:19;1.08;;;1.00;;
55037;SDS011;40937;53.594;10.034;2023-04-03T09:51:48;2.08;;;1.20;;
55037;SDS011;40937;53.594;10.034;2023-04-03T09:57:08;2.33;;;1.30;;
55037;SDS011;40937;53.594;10.034;2023-04-03T09:59:39;3.67;;;1.65;;
55037;SDS011;40937;53.594;10.034;2023-04-03T10:04:55;1.25;;;0.80;;
55037;SDS011;40937;53.594;10.034;2023-04-03T10:07:28;5.25;;;1.40;;
55037;SDS011;40937;53.594;10.034;2023-04-03T10:09:59;1.45;;;1.10;;
55037;SDS011;40937;53.594;10.034;2023-04-03T10:12:27;3.25;;;1.10;;
55037;SDS011;40937;53.594;10.034;2023-04-03T10:14:55;5.53;;;1.55;;
55037;SDS011;40937;53.594;10.034;2023-04-03T10:17:26;2.30;;;1.40;;
55037;SDS011;40937;53.594;10.034;2023-04-03T10:20:02;1.13;;;0.80;;
55037;SDS011;40937;53.594;10.034;2023-04-03T10:22:40;2.20;;;1.30;;
55037;SDS011;40937;53.594;10.034;2023-04-03T10:25:20;2.30;;;1.50;;
55037;SDS011;40937;53.594;10.034;2023-04-03T10:27:56;2.58;;;1.55;;
55037;SDS011;40937;53.594;10.034;2023-04-03T10:30:30;3.60;;;1.20;;
55037;SDS011;40937;53.594;10.034;2023-04-03T10:33:07;2.25;;;1.38;;
55037;SDS011;40937;53.594;10.034;2023-04-03T10:35:46;2.67;;;1.10;;
55037;SDS011;40937;53.594;10.034;2023-04-03T10:38:23;1.65;;;1.17;;
55037;SDS011;40937;53.594;10.034;2023-04-03T10:40:59;1.98;;;0.93;;
55037;SDS011;40937;53.594;10.034;2023-04-03T10:43:33;3.00;;;1.20;;
55037;SDS011;40937;53.594;10.034;2023-04-03T10:46:08;2.45;;;1.10;;
55037;SDS011;40937;53.594;10.034;2023-04-03T10:51:33;2.45;;;1.27;;
55037;SDS011;40937;53.594;10.034;2023-04-03T10:54:11;3.03;;;1.30;;
55037;SDS011;40937;53.594;10.034;2023-04-03T10:56:41;7.53;;;1.30;;
55037;SDS011;40937;53.594;10.034;2023-04-03T10:59:18;5.15;;;1.50;;
55037;SDS011;40937;53.594;10.034;2023-04-03T11:01:53;3.70;;;1.40;;
55037;SDS011;40937;53.594;10.034;2023-04-03T11:04:23;4.18;;;1.58;;
55037;SDS011;40937;53.594;10.034;2023-04-03T11:06:55;1.67;;;1.38;;
55037;SDS011;40937;53.594;10.034;2023-04-03T11:09:28;3.97;;;1.92;;
55037;SDS011;40937;53.594;10.034;2023-04-03T11:12:00;1.55;;;1.45;;
55037;SDS011;40937;53.594;10.034;2023-04-03T11:14:32;5.10;;;1.77;;
55037;SDS011;40937;53.594;10.034;2023-04-03T11:17:04;5.45;;;1.88;;
55037;SDS011;40937;53.594;10.034;2023-04-03T11:19:39;2.60;;;1.58;;
55037;SDS011;40937;53.594;10.034;2023-04-03T11:22:14;3.65;;;1.98;;
55037;SDS011;40937;53.594;10.034;2023-04-03T11:24:54;4.30;;;1.98;;
55037;SDS011;40937;53.594;10.034;2023-04-03T11:27:27;3.67;;;1.85;;
55037;SDS011;40937;53.594;10.034;2023-04-03T11:30:02;4.85;;;1.92;;
55037;SDS011;40937;53.594;10.034;2023-04-03T11:32:43;2.00;;;1.57;;
55037;SDS011;40937;53.594;10.034;2023-04-03T11:35:27;3.57;;;1.50;;
55037;SDS011;40937;53.594;10.034;2023-04-03T11:37:55;2.60;;;1.50;;
55037;SDS011;40937;53.594;10.034;2023-04-03T11:40:28;3.17;;;1.60;;
55037;SDS011;40937;53.594;10.034;2023-04-03T11:43:03;1.57;;;1.23;;
55037;SDS011;40937;53.594;10.034;2023-04-03T11:45:36;3.15;;;1.70;;
55037;SDS011;40937;53.594;10.034;2023-04-03T11:48:05;5.63;;;1.42;;
55037;SDS011;40937;53.594;10.034;2023-04-03T11:50:53;3.60;;;1.52;;
55037;SDS011;40937;53.594;10.034;2023-04-03T11:53:26;2.75;;;1.42;;
55037;SDS011;40937;53.594;10.034;2023-04-03T12:01:50;4.47;;;1.77;;
55037;SDS011;40937;53.594;10.034;2023-04-03T12:04:18;3.08;;;1.05;;
55037;SDS011;40937;53.594;10.034;2023-04-03T12:06:50;2.45;;;1.40;;
55037;SDS011;40937;53.594;10.034;2023-04-03T12:12:36;2.67;;;1.90;;
55037;SDS011;40937;53.594;10.034;2023-04-03T12:15:16;4.70;;;1.55;;
55037;SDS011;40937;53.594;10.034;2023-04-03T12:17:47;2.45;;;1.42;;
55037;SDS011;40937;53.594;10.034;2023-04-03T12:23:23;2.63;;;1.30;;
55037;SDS011;40937;53.594;10.034;2023-04-03T12:25:51;3.22;;;1.80;;
55037;SDS011;40937;53.594;10.034;2023-04-03T12:28:30;1.85;;;1.75;;
55037;SDS011;40937;53.594;10.034;2023-04-03T12:31:04;3.10;;;1.65;;
55037;SDS011;40937;53.594;10.034;2023-04-03T12:33:37;4.32;;;1.27;;
55037;SDS011;40937;53.594;10.034;2023-04-03T12:36:15;2.92;;;1.65;;
55037;SDS011;40937;53.594;10.034;2023-04-03T12:38:53;3.45;;;1.70;;
55037;SDS011;40937;53.594;10.034;2023-04-03T12:41:36;3.55;;;1.83;;
55037;SDS011;40937;53.594;10.034;2023-04-03T12:47:16;2.88;;;1.83;;
55037;SDS011;40937;53.594;10.034;2023-04-03T12:49:53;1.63;;;1.52;;
55037;SDS011;40937;53.594;10.034;2023-04-03T12:52:34;2.83;;;1.50;;
55037;SDS011;40937;53.594;10.034;2023-04-03T12:55:14;4.03;;;1.73;;
55037;SDS011;40937;53.594;10.034;2023-04-03T12:57:42;3.20;;;1.38;;
55037;SDS011;40937;53.594;10.034;2023-04-03T13:00:32;1.83;;;1.25;;
55037;SDS011;40937;53.594;10.034;2023-04-03T13:03:06;4.28;;;1.60;;
55037;SDS011;40937;53.594;10.034;2023-04-03T13:05:46;4.93;;;1.58;;
55037;SDS011;40937;53.594;10.034;2023-04-03T13:08:13;3.88;;;1.15;;
55037;SDS011;40937;53.594;10.034;2023-04-03T13:10:47;4.13;;;1.08;;
55037;SDS011;40937;53.594;10.034;2023-04-03T13:13:19;3.97;;;1.20;;
55037;SDS011;40937;53.594;10.034;2023-04-03T13:15:48;2.38;;;1.55;;
55037;SDS011;40937;53.594;10.034;2023-04-03T13:18:29;1.75;;;1.30;;
55037;SDS011;40937;53.594;10.034;2023-04-03T13:20:59;5.25;;;1.40;;
55037;SDS011;40937;53.594;10.034;2023-04-03T13:23:30;1.83;;;1.20;;
55037;SDS011;40937;53.594;10.034;2023-04-03T13:25:58;3.10;;;1.25;;
55037;SDS011;40937;53.594;10.034;2023-04-03T13:28:29;3.10;;;1.58;;
55037;SDS011;40937;53.594;10.034;2023-04-03T13:31:03;1.85;;;1.52;;
55037;SDS011;40937;53.594;10.034;2023-04-03T13:33:37;3.33;;;1.50;;
55037;SDS011;40937;53.594;10.034;2023-04-03T13:36:05;1.80;;;1.48;;
55037;SDS011;40937;53.594;10.034;2023-04-03T13:38:34;11.63;;;1.40;;
55037;SDS011;40937;53.594;10.034;2023-04-03T13:41:03;1.92;;;1.20;;
55037;SDS011;40937;53.594;10.034;2023-04-03T13:43:33;2.08;;;1.20;;
55037;SDS011;40937;53.594;10.034;2023-04-03T13:46:20;2.33;;;1.30;;
55037;SDS011;40937;53.594;10.034;2023-04-03T13:48:52;2.92;;;1.25;;
55037;SDS011;40937;53.594;10.034;2023-04-03T13:51:21;4.05;;;1.05;;
55037;SDS011;40937;53.594;10.034;2023-04-03T13:53:52;3.83;;;1.10;;
55037;SDS011;40937;53.594;10.034;2023-04-03T13:56:24;5.10;;;1.52;;
55037;SDS011;40937;53.594;10.034;2023-04-03T13:58:55;3.38;;;1.65;;
55037;SDS011;40937;53.594;10.034;2023-04-03T14:04:09;5.30;;;2.40;;
55037;SDS011;40937;53.594;10.034;2023-04-03T14:06:38;3.08;;;1.52;;
55037;SDS011;40937;53.594;10.034;2023-04-03T14:09:05;4.53;;;1.65;;
55037;SDS011;40937;53.594;10.034;2023-04-03T14:11:32;2.05;;;1.38;;
55037;SDS011;40937;53.594;10.034;2023-04-03T14:14:02;1.40;;;1.20;;
55037;SDS011;40937;53.594;10.034;2023-04-03T14:16:33;3.67;;;1.42;;
55037;SDS011;40937;53.594;10.034;2023-04-03T14:19:09;1.63;;;1.30;;
55037;SDS011;40937;53.594;10.034;2023-04-03T14:21:44;1.85;;;1.35;;
55037;SDS011;40937;53.594;10.034;2023-04-03T14:24:12;5.60;;;1.42;;
55037;SDS011;40937;53.594;10.034;2023-04-03T14:26:39;2.83;;;1.25;;
55037;SDS011;40937;53.594;10.034;2023-04-03T14:29:09;2.13;;;1.70;;
55037;SDS011;40937;53.594;10.034;2023-04-03T14:31:37;2.17;;;1.50;;
55037;SDS011;40937;53.594;10.034;2023-04-03T15:03:23;5.15;;;1.40;;
55037;SDS011;40937;53.594;10.034;2023-04-03T15:06:35;3.72;;;1.70;;
55037;SDS011;40937;53.594;10.034;2023-04-03T15:09:47;5.25;;;1.48;;
55037;SDS011;40937;53.594;10.034;2023-04-03T15:12:15;2.95;;;1.60;;
55037;SDS011;40937;53.594;10.034;2023-04-03T15:14:42;6.97;;;1.80;;
55037;SDS011;40937;53.594;10.034;2023-04-03T15:17:10;3.10;;;1.52;;
55037;SDS011;40937;53.594;10.034;2023-04-03T15:22:12;2.30;;;1.50;;
55037;SDS011;40937;53.594;10.034;2023-04-03T15:24:41;2.90;;;1.70;;
55037;SDS011;40937;53.594;10.034;2023-04-03T15:27:08;4.57;;;1.98;;
55037;SDS011;40937;53.594;10.034;2023-04-03T15:29:37;2.63;;;1.98;;
55037;SDS011;40937;53.594;10.034;2023-04-03T15:32:04;4.35;;;1.80;;
55037;SDS011;40937;53.594;10.034;2023-04-03T15:34:32;3.58;;;1.65;;
55037;SDS011;40937;53.594;10.034;2023-04-03T15:37:00;3.40;;;2.00;;
55037;SDS011;40937;53.594;10.034;2023-04-03T15:39:28;5.78;;;1.90;;
55037;SDS011;40937;53.594;10.034;2023-04-03T15:41:55;4.60;;;1.40;;
55037;SDS011;40937;53.594;10.034;2023-04-03T15:44:25;7.45;;;1.75;;
55037;SDS011;40937;53.594;10.034;2023-04-03T15:46:52;5.07;;;1.58;;
55037;SDS011;40937;53.594;10.034;2023-04-03T15:49:20;6.65;;;1.73;;
55037;SDS011;40937;53.594;10.034;2023-04-03T15:51:48;3.00;;;1.48;;
55037;SDS011;40937;53.594;10.034;2023-04-03T15:54:17;4.35;;;2.20;;
55037;SDS011;40937;53.594;10.034;2023-04-03T15:56:45;3.60;;;1.92;;
55037;SDS011;40937;53.594;10.034;2023-04-03T15:59:12;2.90;;;1.95;;
55037;SDS011;40937;53.594;10.034;2023-04-03T16:01:40;2.92;;;2.10;;
55037;SDS011;40937;53.594;10.034;2023-04-03T16:04:07;2.65;;;1.73;;
55037;SDS011;40937;53.594;10.034;2023-04-03T16:06:38;3.65;;;2.00;;